createdAt,value
2023-09-14T00:00:52.413Z,16.68
2023-09-14T00:03:19.483Z,16.66
2023-09-14T00:05:48.189Z,16.63
2023-09-14T00:08:15.100Z,16.62
2023-09-14T00:10:42.138Z,16.59
2023-09-14T00:13:09.958Z,16.52
2023-09-14T00:15:36.985Z,16.55
2023-09-14T00:18:04.253Z,16.52
2023-09-14T00:20:31.566Z,16.48
2023-09-14T00:22:59.533Z,16.42
2023-09-14T00:25:26.770Z,16.39
2023-09-14T00:27:53.954Z,16.35
2023-09-14T00:30:21.410Z,16.30
2023-09-14T00:32:50.871Z,16.24
2023-09-14T00:35:17.886Z,16.19
2023-09-14T00:37:44.363Z,16.16
2023-09-14T00:40:11.626Z,16.10
2023-09-14T00:42:44.990Z,16.06
2023-09-14T00:45:19.593Z,16.00
2023-09-14T00:47:56.060Z,15.97
2023-09-14T00:50:22.779Z,15.94
2023-09-14T00:53:04.083Z,15.91
2023-09-14T00:55:30.915Z,15.87
2023-09-14T00:57:58.356Z,15.84
2023-09-14T01:00:25.476Z,15.80
2023-09-14T01:02:53.614Z,15.74
2023-09-14T01:05:21.650Z,15.70
2023-09-14T01:07:48.988Z,15.66
2023-09-14T01:10:16.550Z,15.60
2023-09-14T01:12:49.373Z,15.56
2023-09-14T01:15:23.415Z,15.52
2023-09-14T01:18:05.322Z,15.47
2023-09-14T01:21:09.359Z,15.44
2023-09-14T01:24:30.920Z,15.39
2023-09-14T01:26:57.728Z,15.33
2023-09-14T01:29:24.164Z,15.32
2023-09-14T01:31:50.624Z,15.26
2023-09-14T01:34:18.032Z,15.19
2023-09-14T01:36:54.889Z,15.17
2023-09-14T01:39:22.296Z,15.18
2023-09-14T01:41:55.796Z,15.15
2023-09-14T01:44:26.249Z,15.12
2023-09-14T01:46:54.819Z,15.09
2023-09-14T01:49:21.291Z,15.07
2023-09-14T01:51:47.825Z,15.05
2023-09-14T01:54:14.341Z,15.01
2023-09-14T01:56:41.431Z,15.00
2023-09-14T01:59:07.872Z,14.92
2023-09-14T02:01:34.312Z,14.95
2023-09-14T02:04:00.782Z,14.95
2023-09-14T02:06:27.262Z,14.92
2023-09-14T02:08:53.669Z,14.88
2023-09-14T02:11:20.099Z,14.86
2023-09-14T02:13:47.536Z,14.84
2023-09-14T02:16:14.119Z,14.80
2023-09-14T02:18:40.855Z,14.80
2023-09-14T02:21:07.288Z,14.75
2023-09-14T02:23:33.812Z,14.76
2023-09-14T02:26:00.285Z,14.73
2023-09-14T02:28:26.691Z,14.70
2023-09-14T02:30:53.138Z,14.68
2023-09-14T02:33:19.672Z,14.66
2023-09-14T02:35:48.435Z,14.61
2023-09-14T02:38:14.996Z,14.64
2023-09-14T02:40:41.462Z,14.64
2023-09-14T02:43:07.972Z,14.63
2023-09-14T02:45:34.546Z,14.61
2023-09-14T02:48:01.050Z,14.59
2023-09-14T02:50:27.720Z,14.56
2023-09-14T02:52:54.135Z,14.53
2023-09-14T02:55:20.554Z,14.52
2023-09-14T02:57:47.083Z,14.50
2023-09-14T03:00:18.096Z,14.48
2023-09-14T03:02:45.647Z,14.48
2023-09-14T03:05:12.447Z,14.45
2023-09-14T03:07:39.551Z,14.43
2023-09-14T03:10:07.617Z,14.42
2023-09-14T03:12:34.168Z,14.36
2023-09-14T03:15:00.656Z,14.33
2023-09-14T03:17:27.149Z,14.32
2023-09-14T03:19:54.451Z,14.28
2023-09-14T03:22:20.945Z,14.26
2023-09-14T03:24:47.463Z,14.24
2023-09-14T03:27:13.937Z,14.23
2023-09-14T03:29:40.415Z,14.21
2023-09-14T03:32:07.217Z,14.19
2023-09-14T03:34:33.746Z,14.17
2023-09-14T03:37:00.240Z,14.16
2023-09-14T03:39:26.836Z,14.14
2023-09-14T03:41:53.273Z,14.12
2023-09-14T03:44:19.684Z,14.10
2023-09-14T03:46:46.299Z,14.06
2023-09-14T03:49:12.876Z,14.04
2023-09-14T03:51:39.379Z,14.00
2023-09-14T03:54:07.900Z,13.98
2023-09-14T03:56:36.557Z,13.96
2023-09-14T03:59:03.369Z,13.96
2023-09-14T04:01:29.912Z,13.97
2023-09-14T04:03:56.485Z,13.95
2023-09-14T04:06:23.016Z,13.92
2023-09-14T04:08:49.444Z,13.92
2023-09-14T04:11:15.906Z,13.91
2023-09-14T04:13:42.432Z,13.90
2023-09-14T04:16:08.973Z,13.88
2023-09-14T04:18:38.698Z,13.87
2023-09-14T04:21:06.754Z,13.82
2023-09-14T04:23:33.258Z,13.82
2023-09-14T04:26:01.194Z,13.78
2023-09-14T04:28:27.765Z,13.79
2023-09-14T04:30:59.355Z,13.75
2023-09-14T04:33:26.443Z,13.76
2023-09-14T04:35:58.114Z,13.74
2023-09-14T04:38:24.681Z,13.75
2023-09-14T04:40:51.167Z,13.74
2023-09-14T04:43:17.658Z,13.69
2023-09-14T04:45:46.406Z,13.66
2023-09-14T04:48:13.027Z,13.65
2023-09-14T04:50:41.551Z,13.61
2023-09-14T04:53:07.991Z,13.64
2023-09-14T04:55:34.429Z,13.60
2023-09-14T04:58:00.892Z,13.61
2023-09-14T05:00:27.344Z,13.61
2023-09-14T05:02:54.328Z,13.56
2023-09-14T05:05:20.789Z,13.56
2023-09-14T05:07:47.332Z,13.56
2023-09-14T05:10:14.724Z,13.56
2023-09-14T05:12:41.293Z,13.57
2023-09-14T05:15:08.413Z,13.56
2023-09-14T05:17:35.778Z,13.57
2023-09-14T05:20:02.290Z,13.57
2023-09-14T05:22:29.350Z,13.59
2023-09-14T05:24:55.930Z,13.58
2023-09-14T05:27:22.445Z,13.58
2023-09-14T05:29:50.352Z,13.58
2023-09-14T05:32:16.873Z,13.57
2023-09-14T05:34:43.662Z,13.58
2023-09-14T05:37:10.380Z,13.59
2023-09-14T05:39:37.441Z,13.60
2023-09-14T05:42:04.255Z,13.62
2023-09-14T05:44:30.878Z,13.62
2023-09-14T05:46:57.497Z,13.64
2023-09-14T05:49:24.271Z,13.67
2023-09-14T05:51:50.907Z,13.68
2023-09-14T05:54:17.437Z,13.70
2023-09-14T05:56:43.902Z,13.73
2023-09-14T05:59:25.443Z,13.75
2023-09-14T06:01:57.022Z,13.77
2023-09-14T06:04:23.664Z,13.79
2023-09-14T06:06:50.817Z,13.79
2023-09-14T06:09:17.409Z,13.82
2023-09-14T06:11:44.292Z,13.84
2023-09-14T06:14:10.742Z,13.89
2023-09-14T06:16:37.249Z,13.91
2023-09-14T06:19:03.890Z,13.95
2023-09-14T06:21:30.379Z,13.97
2023-09-14T06:23:56.890Z,14.00
2023-09-14T06:26:23.350Z,14.04
2023-09-14T06:28:49.833Z,14.05
2023-09-14T06:31:16.413Z,14.09
2023-09-14T06:33:42.972Z,14.12
2023-09-14T06:36:09.706Z,14.12
2023-09-14T06:38:36.276Z,14.15
2023-09-14T06:41:02.763Z,14.16
2023-09-14T06:43:29.297Z,14.24
2023-09-14T06:45:56.407Z,14.25
2023-09-14T06:48:23.031Z,14.27
2023-09-14T06:50:49.458Z,14.27
2023-09-14T06:53:15.964Z,14.33
2023-09-14T06:55:43.455Z,14.39
2023-09-14T06:58:09.975Z,14.43
2023-09-14T07:00:37.235Z,14.47
2023-09-14T07:03:04.438Z,14.52
2023-09-14T07:05:32.072Z,14.56
2023-09-14T07:07:58.684Z,14.63
2023-09-14T07:10:25.745Z,14.55
2023-09-14T07:12:52.315Z,14.61
2023-09-14T07:15:18.878Z,14.67
2023-09-14T07:17:45.413Z,14.73
2023-09-14T07:20:12.035Z,14.80
2023-09-14T07:22:38.542Z,14.89
2023-09-14T07:25:09.892Z,14.94
2023-09-14T07:27:36.984Z,15.03
2023-09-14T07:30:03.752Z,15.09
2023-09-14T07:32:30.237Z,15.14
2023-09-14T07:34:58.701Z,15.20
2023-09-14T07:37:26.152Z,15.29
2023-09-14T07:39:52.683Z,15.37
2023-09-14T07:42:19.366Z,15.46
2023-09-14T07:44:45.818Z,15.58
2023-09-14T07:47:12.266Z,15.67
2023-09-14T07:49:38.709Z,15.81
2023-09-14T07:52:05.380Z,15.89
2023-09-14T07:54:35.591Z,16.06
2023-09-14T07:57:02.102Z,16.40
2023-09-14T07:59:29.241Z,16.77
2023-09-14T08:01:55.797Z,17.40
2023-09-14T08:04:22.338Z,17.99
2023-09-14T08:06:48.770Z,18.48
2023-09-14T08:09:15.208Z,18.77
2023-09-14T08:11:42.532Z,19.25
2023-09-14T08:14:09.087Z,19.55
2023-09-14T08:16:35.671Z,20.17
2023-09-14T08:19:02.254Z,20.82
2023-09-14T08:21:28.819Z,21.50
2023-09-14T08:23:55.512Z,21.73
2023-09-14T08:26:22.167Z,22.10
2023-09-14T08:28:48.607Z,22.44
2023-09-14T08:31:15.205Z,22.97
2023-09-14T08:33:41.879Z,23.23
2023-09-14T08:36:08.335Z,23.42
2023-09-14T08:38:34.881Z,24.01
2023-09-14T08:41:04.941Z,24.49
2023-09-14T08:43:32.432Z,24.05
2023-09-14T08:45:59.872Z,23.97
2023-09-14T08:48:30.271Z,23.80
2023-09-14T08:50:57.182Z,23.96
2023-09-14T08:53:24.578Z,24.16
2023-09-14T08:55:52.196Z,24.65
2023-09-14T08:58:19.420Z,24.95
2023-09-14T09:00:49.188Z,24.94
2023-09-14T09:03:15.894Z,25.07
2023-09-14T09:05:42.739Z,25.06
2023-09-14T09:08:09.280Z,25.52
2023-09-14T09:10:37.635Z,25.88
2023-09-14T09:13:05.282Z,26.27
2023-09-14T09:15:37.848Z,26.02
2023-09-14T09:18:09.330Z,25.73
2023-09-14T09:20:37.793Z,25.81
2023-09-14T09:23:04.637Z,25.71
2023-09-14T09:25:45.472Z,25.71
2023-09-14T09:28:12.060Z,26.19
2023-09-14T09:30:38.562Z,25.85
2023-09-14T09:33:05.599Z,26.19
2023-09-14T09:35:32.758Z,26.56
2023-09-14T09:38:00.308Z,26.77
2023-09-14T09:40:29.369Z,27.15
2023-09-14T09:42:56.216Z,27.43
2023-09-14T09:45:27.169Z,27.64
2023-09-14T09:47:54.499Z,27.06
2023-09-14T09:50:22.640Z,26.72
2023-09-14T09:52:50.011Z,26.82
2023-09-14T09:55:27.336Z,26.69
2023-09-14T09:57:55.439Z,26.34
2023-09-14T10:00:23.187Z,26.23
2023-09-14T10:02:54.414Z,26.18
2023-09-14T10:05:41.037Z,25.97
2023-09-14T10:08:19.147Z,25.47
2023-09-14T10:10:53.387Z,25.07
2023-09-14T10:13:24.849Z,24.90
2023-09-14T10:15:56.206Z,24.85
2023-09-14T10:18:25.388Z,24.69
2023-09-14T10:20:53.617Z,24.56
2023-09-14T10:23:21.858Z,24.38
2023-09-14T10:25:50.934Z,24.11
2023-09-14T10:28:18.486Z,23.80
2023-09-14T10:30:46.509Z,23.64
2023-09-14T10:33:16.668Z,23.66
2023-09-14T10:35:43.347Z,23.62
2023-09-14T10:38:11.935Z,23.61
2023-09-14T10:40:38.662Z,23.47
2023-09-14T10:43:09.136Z,23.35
2023-09-14T10:45:41.249Z,23.32
2023-09-14T10:48:11.879Z,23.21
2023-09-14T10:50:38.461Z,22.93
2023-09-14T10:53:05.031Z,22.71
2023-09-14T10:55:36.389Z,22.69
2023-09-14T10:58:03.303Z,22.71
2023-09-14T11:00:55.356Z,22.61
2023-09-14T11:03:24.852Z,22.33
2023-09-14T11:05:54.748Z,22.28
2023-09-14T11:08:23.313Z,22.27
2023-09-14T11:10:58.990Z,22.28
2023-09-14T11:13:27.485Z,22.24
2023-09-14T11:16:07.749Z,22.14
2023-09-14T11:18:52.822Z,22.07
2023-09-14T11:21:33.592Z,22.07
2023-09-14T11:24:03.910Z,22.09
2023-09-14T11:26:31.684Z,22.13
2023-09-14T11:29:01.575Z,22.16
2023-09-14T11:31:43.319Z,22.22
2023-09-14T11:34:24.091Z,22.24
2023-09-14T11:36:53.527Z,22.21
2023-09-14T11:39:25.772Z,22.17
2023-09-14T11:41:54.837Z,22.12
2023-09-14T11:44:44.250Z,22.04
2023-09-14T11:47:14.930Z,21.99
2023-09-14T11:49:42.970Z,21.93
2023-09-14T11:52:12.014Z,21.98
2023-09-14T11:54:38.566Z,22.06
2023-09-14T11:57:06.254Z,22.07
2023-09-14T11:59:33.343Z,22.07
2023-09-14T12:02:01.416Z,21.99
2023-09-14T12:04:29.322Z,21.86
2023-09-14T12:06:56.610Z,21.75
2023-09-14T12:09:40.416Z,21.82
2023-09-14T12:12:14.948Z,21.75
2023-09-14T12:14:44.665Z,21.74
2023-09-14T12:17:25.683Z,21.76
2023-09-14T12:19:56.457Z,21.89
2023-09-14T12:22:25.779Z,22.13
2023-09-14T12:24:52.581Z,22.18
2023-09-14T12:27:19.564Z,22.30
2023-09-14T12:29:47.340Z,22.31
2023-09-14T12:32:14.237Z,22.34
2023-09-14T12:34:40.808Z,22.48
2023-09-14T12:37:07.860Z,22.73
2023-09-14T12:39:35.068Z,22.91
2023-09-14T12:42:02.654Z,23.07
2023-09-14T12:44:29.233Z,22.98
2023-09-14T12:46:55.773Z,22.81
2023-09-14T12:49:23.238Z,22.68
2023-09-14T12:51:50.645Z,22.67
2023-09-14T12:54:20.643Z,22.63
2023-09-14T12:56:47.126Z,22.80
2023-09-14T12:59:13.603Z,23.06
2023-09-14T13:01:41.854Z,23.19
2023-09-14T13:04:11.289Z,23.43
2023-09-14T13:06:37.844Z,23.73
2023-09-14T13:09:09.663Z,23.99
2023-09-14T13:11:38.363Z,24.22
2023-09-14T13:14:08.573Z,24.36
2023-09-14T13:16:35.174Z,24.40
2023-09-14T13:19:02.566Z,24.55
2023-09-14T13:21:29.396Z,24.65
2023-09-14T13:23:56.683Z,24.63
2023-09-14T13:26:23.775Z,24.58
2023-09-14T13:28:50.300Z,24.37
2023-09-14T13:31:16.854Z,24.12
2023-09-14T13:33:43.565Z,23.90
2023-09-14T13:36:10.203Z,23.74
2023-09-14T13:38:36.700Z,23.55
2023-09-14T13:41:05.083Z,23.34
2023-09-14T13:43:31.545Z,23.22
2023-09-14T13:45:58.103Z,23.10
2023-09-14T13:48:28.330Z,23.02
2023-09-14T13:50:56.007Z,22.99
2023-09-14T13:53:22.558Z,22.98
2023-09-14T13:55:48.999Z,22.97
2023-09-14T13:58:15.564Z,22.92
2023-09-14T14:00:42.448Z,23.05
2023-09-14T14:03:10.965Z,23.24
2023-09-14T14:05:40.252Z,23.42
2023-09-14T14:08:08.359Z,23.50
2023-09-14T14:10:38.143Z,23.68
2023-09-14T14:13:05.034Z,23.81
2023-09-14T14:15:32.073Z,23.99
2023-09-14T14:17:58.775Z,24.18
2023-09-14T14:20:25.406Z,24.31
2023-09-14T14:22:51.916Z,24.29
2023-09-14T14:25:18.461Z,24.19
2023-09-14T14:27:45.289Z,24.07
2023-09-14T14:30:13.250Z,23.94
2023-09-14T14:32:40.784Z,23.80
2023-09-14T14:35:08.031Z,23.65
2023-09-14T14:37:34.743Z,23.63
2023-09-14T14:40:01.422Z,23.73
2023-09-14T14:42:28.057Z,23.73
2023-09-14T14:44:54.684Z,23.63
2023-09-14T14:47:21.162Z,23.55
2023-09-14T14:49:49.268Z,23.49
2023-09-14T14:52:16.212Z,23.38
2023-09-14T14:54:42.790Z,23.47
2023-09-14T14:57:09.378Z,23.53
2023-09-14T14:59:36.705Z,23.52
2023-09-14T15:02:03.371Z,23.45
2023-09-14T15:04:30.140Z,23.30
2023-09-14T15:06:56.871Z,23.27
2023-09-14T15:09:23.399Z,23.20
2023-09-14T15:11:50.772Z,23.14
2023-09-14T15:14:17.316Z,23.03
2023-09-14T15:16:43.899Z,23.01
2023-09-14T15:19:10.633Z,22.90
2023-09-14T15:21:37.084Z,22.91
2023-09-14T15:24:03.897Z,23.02
2023-09-14T15:26:30.424Z,23.03
2023-09-14T15:29:00.519Z,23.06
2023-09-14T15:31:27.089Z,23.09
2023-09-14T15:33:54.487Z,23.09
2023-09-14T15:36:22.344Z,23.22
2023-09-14T15:38:49.158Z,23.37
2023-09-14T15:41:18.464Z,23.44
2023-09-14T15:43:45.137Z,23.49
2023-09-14T15:46:14.800Z,23.44
2023-09-14T15:48:41.858Z,23.43
2023-09-14T15:51:08.377Z,23.48
2023-09-14T15:53:37.144Z,23.55
2023-09-14T15:56:04.511Z,23.62
2023-09-14T15:58:30.977Z,23.66
2023-09-14T16:01:00.493Z,23.67
2023-09-14T16:03:27.674Z,23.71
2023-09-14T16:05:54.828Z,23.73
2023-09-14T16:08:21.337Z,23.70
2023-09-14T16:10:48.190Z,23.66
2023-09-14T16:13:14.737Z,23.61
2023-09-14T16:15:44.133Z,23.57
2023-09-14T16:18:10.864Z,23.54
2023-09-14T16:20:37.419Z,23.49
2023-09-14T16:23:03.975Z,23.55
2023-09-14T16:25:30.481Z,23.57
2023-09-14T16:28:00.275Z,23.55
2023-09-14T16:30:27.135Z,23.52
2023-09-14T16:32:53.722Z,23.51
2023-09-14T16:35:20.329Z,23.51
2023-09-14T16:37:46.832Z,23.46
2023-09-14T16:40:13.373Z,23.38
2023-09-14T16:42:39.937Z,23.30
2023-09-14T16:45:06.780Z,23.26
2023-09-14T16:47:34.069Z,23.21
2023-09-14T16:50:01.948Z,23.12
2023-09-14T16:52:29.754Z,23.08
2023-09-14T16:54:56.595Z,22.97
2023-09-14T16:57:25.425Z,22.89
2023-09-14T16:59:52.550Z,22.80
2023-09-14T17:02:38.549Z,22.65
2023-09-14T17:05:05.450Z,22.46
2023-09-14T17:07:32.092Z,22.45
2023-09-14T17:10:01.685Z,22.34
2023-09-14T17:12:28.300Z,22.24
2023-09-14T17:14:55.485Z,22.18
2023-09-14T17:17:21.978Z,22.11
2023-09-14T17:19:48.588Z,22.04
2023-09-14T17:22:17.226Z,21.92
2023-09-14T17:24:43.692Z,21.81
2023-09-14T17:27:10.921Z,21.79
2023-09-14T17:29:38.386Z,21.72
2023-09-14T17:32:06.814Z,21.66
2023-09-14T17:34:34.118Z,21.58
2023-09-14T17:37:00.558Z,21.42
2023-09-14T17:39:27.052Z,21.31
2023-09-14T17:41:53.836Z,21.19
2023-09-14T17:44:20.493Z,21.11
2023-09-14T17:46:47.121Z,20.99
2023-09-14T17:49:13.722Z,20.87
2023-09-14T17:51:40.291Z,20.82
2023-09-14T17:54:06.976Z,20.71
2023-09-14T17:56:33.650Z,20.61
2023-09-14T17:59:01.184Z,20.57
2023-09-14T18:01:27.794Z,20.51
2023-09-14T18:03:54.770Z,20.45
2023-09-14T18:06:21.505Z,20.39
2023-09-14T18:08:48.483Z,20.27
2023-09-14T18:11:15.381Z,20.18
2023-09-14T18:13:41.914Z,20.10
2023-09-14T18:16:08.545Z,20.07
2023-09-14T18:18:35.093Z,20.04
2023-09-14T18:21:01.702Z,20.01
2023-09-14T18:23:28.927Z,19.94
2023-09-14T18:25:56.527Z,19.88
2023-09-14T18:28:26.634Z,19.84
2023-09-14T18:30:54.298Z,19.82
2023-09-14T18:33:20.827Z,19.78
2023-09-14T18:35:47.298Z,19.75
2023-09-14T18:38:13.790Z,19.70
2023-09-14T18:40:40.321Z,19.67
2023-09-14T18:43:06.938Z,19.59
2023-09-14T18:45:33.501Z,19.56
2023-09-14T18:48:01.680Z,19.52
2023-09-14T18:50:28.154Z,19.44
2023-09-14T18:52:54.585Z,19.37
2023-09-14T18:55:23.482Z,19.35
2023-09-14T18:57:50.022Z,19.30
2023-09-14T19:00:16.692Z,19.26
2023-09-14T19:02:45.311Z,19.21
2023-09-14T19:05:13.243Z,19.19
2023-09-14T19:07:40.446Z,19.15
2023-09-14T19:10:07.776Z,19.12
2023-09-14T19:12:34.405Z,19.05
2023-09-14T19:15:00.891Z,18.98
2023-09-14T19:17:28.686Z,18.93
2023-09-14T19:19:55.205Z,18.91
2023-09-14T19:22:21.681Z,18.88
2023-09-14T19:24:48.162Z,18.82
2023-09-14T19:27:14.696Z,18.78
2023-09-14T19:29:41.417Z,18.73
2023-09-14T19:32:07.991Z,18.67
2023-09-14T19:34:36.340Z,18.62
2023-09-14T19:37:04.489Z,18.56
2023-09-14T19:39:31.121Z,18.50
2023-09-14T19:41:57.593Z,18.44
2023-09-14T19:44:24.206Z,18.37
2023-09-14T19:46:50.779Z,18.37
2023-09-14T19:49:17.403Z,18.33
2023-09-14T19:51:43.924Z,18.29
2023-09-14T19:54:11.318Z,18.24
2023-09-14T19:56:37.796Z,18.23
2023-09-14T19:59:04.373Z,18.20
2023-09-14T20:01:30.971Z,18.12
2023-09-14T20:03:57.533Z,18.04
2023-09-14T20:06:25.999Z,18.06
2023-09-14T20:08:52.746Z,18.01
2023-09-14T20:11:20.211Z,17.98
2023-09-14T20:13:46.937Z,17.97
2023-09-14T20:16:13.459Z,17.94
2023-09-14T20:18:43.033Z,17.91
2023-09-14T20:21:09.854Z,17.87
2023-09-14T20:23:36.385Z,17.87
2023-09-14T20:26:03.135Z,17.80
2023-09-14T20:28:29.550Z,17.79
2023-09-14T20:30:56.060Z,17.77
2023-09-14T20:33:23.100Z,17.74
2023-09-14T20:35:49.752Z,17.72
2023-09-14T20:38:19.079Z,17.70
2023-09-14T20:40:47.435Z,17.66
2023-09-14T20:43:14.785Z,17.62
2023-09-14T20:45:42.152Z,17.59
2023-09-14T20:48:16.145Z,17.54
2023-09-14T20:50:43.012Z,17.54
2023-09-14T20:53:09.748Z,17.52
2023-09-14T20:55:43.909Z,17.48
2023-09-14T20:58:10.588Z,17.47
2023-09-14T21:00:37.831Z,17.44
2023-09-14T21:03:05.096Z,17.39
2023-09-14T21:05:31.872Z,17.39
2023-09-14T21:07:59.550Z,17.34
2023-09-14T21:10:26.056Z,17.30
2023-09-14T21:12:52.584Z,17.28
2023-09-14T21:15:19.317Z,17.24
2023-09-14T21:17:45.793Z,17.21
2023-09-14T21:20:12.368Z,17.19
2023-09-14T21:22:39.930Z,17.15
2023-09-14T21:25:07.587Z,17.13
2023-09-14T21:27:34.550Z,17.12
2023-09-14T21:30:01.213Z,17.09
2023-09-14T21:32:29.051Z,17.06
2023-09-14T21:34:55.728Z,17.02
2023-09-14T21:37:22.187Z,16.98
2023-09-14T21:39:48.697Z,16.93
2023-09-14T21:42:15.516Z,16.94
2023-09-14T21:44:42.116Z,16.91
2023-09-14T21:47:08.766Z,16.88
2023-09-14T21:49:46.303Z,16.86
2023-09-14T21:52:13.400Z,16.81
2023-09-14T21:54:40.498Z,16.80
2023-09-14T21:57:08.315Z,16.77
2023-09-14T21:59:36.068Z,16.74
2023-09-14T22:02:04.208Z,16.72
2023-09-14T22:04:30.985Z,16.67
2023-09-14T22:06:57.632Z,16.66
2023-09-14T22:09:24.929Z,16.65
2023-09-14T22:11:52.809Z,16.62
2023-09-14T22:14:19.366Z,16.57
2023-09-14T22:16:46.466Z,16.55
2023-09-14T22:19:13.050Z,16.51
2023-09-14T22:21:45.264Z,16.52
2023-09-14T22:24:11.824Z,16.49
2023-09-14T22:26:38.498Z,16.48
2023-09-14T22:29:05.278Z,16.44
2023-09-14T22:31:31.915Z,16.39
2023-09-14T22:33:58.582Z,16.38
2023-09-14T22:36:25.029Z,16.35
2023-09-14T22:38:51.501Z,16.26
2023-09-14T22:41:18.044Z,16.32
2023-09-14T22:43:44.502Z,16.28
2023-09-14T22:46:11.339Z,16.25
2023-09-14T22:48:39.099Z,16.19
2023-09-14T22:51:14.581Z,16.22
2023-09-14T22:53:41.758Z,16.19
2023-09-14T22:56:15.763Z,16.19
2023-09-14T22:58:43.524Z,16.14
2023-09-14T23:01:10.229Z,16.13
2023-09-14T23:03:38.744Z,16.10
2023-09-14T23:06:06.829Z,16.06
2023-09-14T23:08:35.236Z,16.07
2023-09-14T23:11:04.763Z,16.04
2023-09-14T23:13:31.363Z,16.01
2023-09-14T23:15:57.957Z,15.98
2023-09-14T23:18:24.737Z,15.97
2023-09-14T23:20:52.611Z,15.94
2023-09-14T23:23:19.240Z,15.91
2023-09-14T23:25:45.749Z,15.90
2023-09-14T23:28:12.185Z,15.87
2023-09-14T23:30:38.724Z,15.86
2023-09-14T23:33:05.580Z,15.83
2023-09-14T23:35:33.040Z,15.82
2023-09-14T23:37:59.547Z,15.81
2023-09-14T23:40:33.116Z,15.73
2023-09-14T23:43:04.961Z,15.73
2023-09-14T23:45:32.321Z,15.71
2023-09-14T23:47:58.857Z,15.72
2023-09-14T23:50:26.018Z,15.71
2023-09-14T23:52:53.466Z,15.68
2023-09-14T23:55:20.354Z,15.70
2023-09-14T23:57:47.261Z,15.71
